Time;durP1;ratioP1;P1;durP2;ratioP2;P2;SDS_P1;SDS_P2;PMS_P1;PMS_P2;Temp;Humidity;BMP_temperature;BMP_pressure;BME280_temperature;BME280_humidity;BME280_pressure;Samples;Min_cycle;Max_cycle;Signal;HPM_P1;HPM_P2
2023/07/26 00:00:40;;;;;;;9.35;8.50;;;12.80;99.90;;;;;;4975806;28;20045;-77
2023/07/26 00:03:07;;;;;;;9.75;8.52;;;12.70;99.90;;;;;;4979880;28;20037;-78
2023/07/26 00:05:33;;;;;;;9.48;8.68;;;12.70;99.90;;;;;;4973906;28;20038;-78
2023/07/26 00:07:59;;;;;;;10.15;9.25;;;12.80;99.90;;;;;;4974849;28;20418;-77
2023/07/26 00:10:25;;;;;;;10.35;9.38;;;12.80;99.90;;;;;;4977178;28;20042;-78
2023/07/26 00:12:50;;;;;;;11.30;10.20;;;12.80;99.90;;;;;;4986629;28;20185;-77
2023/07/26 00:15:16;;;;;;;12.10;10.48;;;12.70;99.90;;;;;;4970605;28;20116;-78
2023/07/26 00:17:42;;;;;;;11.60;10.55;;;12.80;99.90;;;;;;4963954;28;20038;-77
2023/07/26 00:20:08;;;;;;;11.60;10.40;;;12.80;99.90;;;;;;4960592;28;20061;-77
2023/07/26 00:22:34;;;;;;;12.52;11.30;;;12.80;99.90;;;;;;4960439;28;20092;-78
2023/07/26 00:25:01;;;;;;;11.80;10.70;;;12.80;99.90;;;;;;4969595;28;20040;-77
2023/07/26 00:27:27;;;;;;;12.05;9.50;;;12.80;99.90;;;;;;4962588;28;20223;-78
2023/07/26 00:29:54;;;;;;;10.70;9.63;;;12.70;99.90;;;;;;4970242;28;20391;-77
2023/07/26 00:32:21;;;;;;;13.43;12.23;;;12.70;99.90;;;;;;4976595;28;20045;-78
2023/07/26 00:34:47;;;;;;;10.80;9.73;;;12.70;99.90;;;;;;4974437;28;20033;-77
2023/07/26 00:37:13;;;;;;;10.68;9.65;;;12.70;99.90;;;;;;4993996;28;20100;-77
2023/07/26 00:39:43;;;;;;;10.77;9.77;;;12.70;99.90;;;;;;4974080;28;20406;-78
2023/07/26 00:42:11;;;;;;;10.48;9.63;;;12.70;99.90;;;;;;4978453;28;20045;-78
2023/07/26 00:44:37;;;;;;;10.93;9.82;;;12.70;99.90;;;;;;4995431;28;20053;-77
2023/07/26 00:47:03;;;;;;;11.93;9.98;;;12.70;99.90;;;;;;4969221;28;20045;-78
2023/07/26 00:49:29;;;;;;;11.60;10.50;;;12.70;99.90;;;;;;4960167;28;20043;-77
2023/07/26 00:51:55;;;;;;;12.77;10.60;;;12.60;99.90;;;;;;4964522;28;20045;-77
2023/07/26 00:54:21;;;;;;;12.02;11.00;;;12.60;99.90;;;;;;4965295;28;20073;-78
2023/07/26 00:56:47;;;;;;;12.05;10.70;;;12.60;99.90;;;;;;4971061;28;20034;-78
2023/07/26 00:59:13;;;;;;;12.40;11.30;;;12.60;99.90;;;;;;4960084;28;20049;-77
2023/07/26 01:01:39;;;;;;;11.18;10.07;;;12.60;99.90;;;;;;4976251;28;20410;-77
2023/07/26 01:04:06;;;;;;;12.68;11.48;;;12.60;99.90;;;;;;4965019;28;20033;-77
2023/07/26 01:07:09;;;;;;;12.55;11.45;;;12.60;99.90;;;;;;4984454;28;20048;-77
2023/07/26 01:09:55;;;;;;;11.27;10.18;;;12.60;99.90;;;;;;4979417;28;20042;-78
2023/07/26 01:12:33;;;;;;;12.30;11.32;;;12.60;99.90;;;;;;4973552;28;20049;-78
2023/07/26 01:15:02;;;;;;;11.85;10.63;;;12.60;99.90;;;;;;4971479;28;20034;-78
2023/07/26 01:17:29;;;;;;;12.27;11.20;;;12.60;99.90;;;;;;4978025;28;20049;-77
2023/07/26 01:19:56;;;;;;;11.63;10.52;;;12.60;99.90;;;;;;4961677;28;20038;-77
2023/07/26 01:22:22;;;;;;;11.45;10.45;;;12.50;99.90;;;;;;4959723;28;20046;-78
2023/07/26 01:24:48;;;;;;;13.02;11.82;;;12.50;99.90;;;;;;4980836;28;20632;-77
2023/07/26 01:27:14;;;;;;;11.95;10.90;;;12.50;99.90;;;;;;4967006;28;20117;-77
2023/07/26 01:29:40;;;;;;;11.70;10.55;;;12.50;99.90;;;;;;4972868;28;20052;-77
2023/07/26 01:32:12;;;;;;;11.98;10.90;;;12.40;99.90;;;;;;4971224;28;20188;-77
2023/07/26 01:34:38;;;;;;;11.93;10.82;;;12.40;99.90;;;;;;4977273;28;20405;-77
2023/07/26 01:37:06;;;;;;;11.00;10.00;;;12.30;99.90;;;;;;4967116;28;20034;-78
2023/07/26 01:39:33;;;;;;;12.30;11.20;;;12.30;99.90;;;;;;4977224;28;20045;-77
2023/07/26 01:41:59;;;;;;;11.40;10.50;;;12.20;99.90;;;;;;4970771;28;20500;-77
2023/07/26 01:44:25;;;;;;;14.90;12.48;;;12.20;99.90;;;;;;4993232;28;20033;-77
2023/07/26 01:46:52;;;;;;;12.25;11.15;;;12.10;99.90;;;;;;4969817;28;20490;-77
2023/07/26 01:49:21;;;;;;;12.25;10.98;;;12.00;99.90;;;;;;4975398;28;20046;-77
2023/07/26 01:51:46;;;;;;;11.02;10.02;;;11.90;99.90;;;;;;4983650;28;20046;-77
2023/07/26 01:54:12;;;;;;;16.38;13.73;;;11.90;99.90;;;;;;4967727;28;20042;-77
2023/07/26 01:56:38;;;;;;;13.93;12.52;;;11.80;99.90;;;;;;4982937;28;20498;-77
2023/07/26 01:59:04;;;;;;;10.93;10.00;;;11.70;99.90;;;;;;4959118;28;20042;-78
2023/07/26 02:01:29;;;;;;;11.68;10.68;;;11.60;99.90;;;;;;4959000;28;20049;-77
2023/07/26 02:03:55;;;;;;;12.98;10.82;;;11.60;99.90;;;;;;4959885;28;20042;-77
2023/07/26 02:06:21;;;;;;;12.00;10.77;;;11.50;99.90;;;;;;4990125;28;20057;-77
2023/07/26 02:08:47;;;;;;;11.65;10.65;;;11.40;99.90;;;;;;4974856;28;20042;-77
2023/07/26 02:11:13;;;;;;;14.02;12.73;;;11.40;99.90;;;;;;4994775;28;20072;-77
2023/07/26 02:13:38;;;;;;;18.33;15.55;;;11.30;99.90;;;;;;4978207;28;20442;-77
2023/07/26 02:16:04;;;;;;;13.50;12.23;;;11.30;99.90;;;;;;4974531;28;20061;-78
2023/07/26 02:18:31;;;;;;;11.23;10.30;;;11.20;99.90;;;;;;4990112;28;20503;-77
2023/07/26 02:20:57;;;;;;;13.73;11.80;;;11.20;99.90;;;;;;4968581;28;20038;-77
2023/07/26 02:23:23;;;;;;;12.38;11.20;;;11.10;99.90;;;;;;4958657;28;20040;-77
2023/07/26 02:25:49;;;;;;;14.65;12.93;;;11.10;99.90;;;;;;4973961;28;20048;-77
2023/07/26 02:28:14;;;;;;;11.77;10.48;;;11.10;99.90;;;;;;4966161;28;20086;-78
2023/07/26 02:30:40;;;;;;;12.10;10.90;;;11.10;99.90;;;;;;4958681;28;20042;-77
2023/07/26 02:33:06;;;;;;;12.93;11.65;;;11.00;99.90;;;;;;4959630;28;20635;-77
2023/07/26 02:35:32;;;;;;;12.40;11.30;;;11.00;99.90;;;;;;4965004;28;20091;-77
2023/07/26 02:37:57;;;;;;;13.50;12.30;;;11.00;99.90;;;;;;4973048;28;20046;-77
2023/07/26 02:40:23;;;;;;;14.13;12.75;;;10.90;99.90;;;;;;4979120;28;20038;-77
2023/07/26 02:42:49;;;;;;;18.48;16.67;;;10.90;99.90;;;;;;4971433;28;20053;-77
2023/07/26 02:45:15;;;;;;;12.93;11.63;;;10.90;99.90;;;;;;4977660;28;20081;-77
2023/07/26 02:47:40;;;;;;;14.18;12.88;;;10.80;99.90;;;;;;4991829;28;20108;-77
2023/07/26 02:50:06;;;;;;;18.88;16.80;;;10.90;99.90;;;;;;4981478;28;20043;-77
2023/07/26 02:52:32;;;;;;;14.23;13.02;;;10.80;99.90;;;;;;4968497;28;20046;-77
2023/07/26 02:55:00;;;;;;;14.00;12.77;;;10.80;99.90;;;;;;4973698;28;20045;-77
2023/07/26 02:57:26;;;;;;;16.63;15.10;;;10.70;99.90;;;;;;4993152;28;20037;-77
2023/07/26 02:59:52;;;;;;;13.40;12.20;;;10.70;99.90;;;;;;4977849;28;20461;-77
2023/07/26 03:02:18;;;;;;;15.55;14.13;;;10.70;99.90;;;;;;4964802;28;20133;-77
2023/07/26 03:04:44;;;;;;;11.95;10.85;;;10.60;99.90;;;;;;4999359;28;20045;-77
2023/07/26 03:07:10;;;;;;;15.05;13.75;;;10.60;99.90;;;;;;4964277;28;20462;-77
2023/07/26 03:09:36;;;;;;;14.90;13.50;;;10.60;99.90;;;;;;4972835;28;20042;-77
2023/07/26 03:12:01;;;;;;;16.88;15.18;;;10.50;99.90;;;;;;4977167;28;20065;-77
2023/07/26 03:14:27;;;;;;;13.50;12.40;;;10.50;99.90;;;;;;4997174;28;20050;-77
2023/07/26 03:16:55;;;;;;;13.30;12.07;;;10.50;99.90;;;;;;4982392;28;20040;-77
2023/07/26 03:19:21;;;;;;;14.30;13.00;;;10.50;99.90;;;;;;4992935;28;20081;-77
2023/07/26 03:21:47;;;;;;;16.02;14.63;;;10.50;99.90;;;;;;5000036;28;20069;-77
2023/07/26 03:24:15;;;;;;;19.75;17.90;;;10.40;99.90;;;;;;5001316;28;20034;-77
2023/07/26 03:26:40;;;;;;;18.23;16.52;;;10.40;99.90;;;;;;4980879;28;20038;-77
2023/07/26 03:29:06;;;;;;;18.73;16.88;;;10.40;99.90;;;;;;4983021;28;20053;-77
2023/07/26 03:31:32;;;;;;;17.35;15.75;;;10.40;99.90;;;;;;5000479;28;20042;-77
2023/07/26 03:33:58;;;;;;;15.60;14.23;;;10.40;99.90;;;;;;4996565;28;20042;-77
2023/07/26 03:36:26;;;;;;;15.07;13.63;;;10.40;99.90;;;;;;4986386;28;20145;-77
2023/07/26 03:38:52;;;;;;;14.73;13.27;;;10.40;99.90;;;;;;5015021;28;20468;-77
2023/07/26 03:41:18;;;;;;;17.42;15.80;;;10.40;99.90;;;;;;4999625;28;20104;-76
2023/07/26 03:43:44;;;;;;;14.18;12.98;;;10.40;99.90;;;;;;4983797;28;20034;-76
2023/07/26 03:46:09;;;;;;;16.30;14.75;;;10.40;99.90;;;;;;4980617;28;20042;-76
2023/07/26 03:48:35;;;;;;;14.93;13.43;;;10.30;99.90;;;;;;4992672;28;20057;-76
2023/07/26 03:51:01;;;;;;;16.88;15.13;;;10.30;99.90;;;;;;4998403;28;20100;-76
2023/07/26 03:53:27;;;;;;;15.57;14.18;;;10.30;99.90;;;;;;4981178;28;20579;-76
2023/07/26 03:55:55;;;;;;;15.40;13.93;;;10.30;99.90;;;;;;4970480;28;20045;-76
2023/07/26 03:58:20;;;;;;;15.23;13.82;;;10.30;99.90;;;;;;4977451;28;20050;-76
2023/07/26 04:00:46;;;;;;;17.08;15.48;;;10.40;99.90;;;;;;4968875;28;20034;-76
2023/07/26 04:03:12;;;;;;;14.82;13.32;;;10.40;99.90;;;;;;4974499;28;20066;-76
2023/07/26 04:05:38;;;;;;;19.13;17.33;;;10.40;99.90;;;;;;4967155;28;20413;-76
2023/07/26 04:08:04;;;;;;;16.98;15.43;;;10.40;99.90;;;;;;4961121;28;20418;-76
2023/07/26 04:10:29;;;;;;;15.32;13.93;;;10.50;99.90;;;;;;4961320;28;20046;-76
2023/07/26 04:12:55;;;;;;;17.17;15.70;;;10.50;99.90;;;;;;4969179;28;20072;-76
2023/07/26 04:15:21;;;;;;;15.20;13.80;;;10.50;99.90;;;;;;4975692;28;20153;-76
2023/07/26 04:17:47;;;;;;;28.95;25.25;;;10.50;99.90;;;;;;4968835;28;20092;-76
2023/07/26 04:20:12;;;;;;;20.05;18.23;;;10.60;99.90;;;;;;4988388;28;20040;-76
2023/07/26 04:22:38;;;;;;;21.48;19.35;;;10.70;99.90;;;;;;4970483;28;20066;-76
2023/07/26 04:25:05;;;;;;;17.40;15.80;;;10.70;99.90;;;;;;4967320;28;20585;-76
2023/07/26 04:27:31;;;;;;;16.17;14.57;;;10.80;99.90;;;;;;4968056;28;20045;-76
2023/07/26 04:29:56;;;;;;;20.88;18.98;;;10.90;99.90;;;;;;4978807;28;20073;-76
2023/07/26 04:32:22;;;;;;;20.95;18.73;;;10.90;99.90;;;;;;4960971;28;20133;-77
2023/07/26 04:34:48;;;;;;;16.55;15.05;;;11.00;99.90;;;;;;4965021;28;20038;-78
2023/07/26 04:37:14;;;;;;;17.50;15.80;;;11.00;99.90;;;;;;4968853;28;20046;-77
2023/07/26 04:39:39;;;;;;;18.88;17.13;;;11.10;99.90;;;;;;4976753;28;20052;-77
2023/07/26 04:42:05;;;;;;;17.15;15.55;;;11.20;99.90;;;;;;4979473;28;20148;-77
2023/07/26 04:44:31;;;;;;;16.90;15.27;;;11.30;99.90;;;;;;4994745;28;20034;-77
2023/07/26 04:46:58;;;;;;;16.63;15.23;;;11.30;99.90;;;;;;4970181;28;20038;-77
2023/07/26 04:49:24;;;;;;;17.60;15.90;;;11.30;99.90;;;;;;4993190;28;20497;-77
2023/07/26 04:51:49;;;;;;;24.60;22.23;;;11.40;99.90;;;;;;4974905;28;20053;-76
2023/07/26 04:54:15;;;;;;;22.55;20.35;;;11.40;99.90;;;;;;4975224;28;20553;-77
2023/07/26 04:56:41;;;;;;;16.08;14.75;;;11.50;99.90;;;;;;4970941;28;20112;-76
2023/07/26 04:59:06;;;;;;;13.98;12.77;;;11.60;99.90;;;;;;4997660;28;20099;-77
2023/07/26 05:01:32;;;;;;;15.60;14.25;;;11.70;99.90;;;;;;4974050;28;20049;-77
2023/07/26 05:03:58;;;;;;;14.52;13.13;;;11.80;99.90;;;;;;4974344;28;20117;-77
2023/07/26 05:06:27;;;;;;;14.90;13.60;;;11.90;99.90;;;;;;4969688;28;20076;-77
2023/07/26 05:08:52;;;;;;;14.88;13.48;;;12.00;99.90;;;;;;4979600;28;20045;-76
2023/07/26 05:11:22;;;;;;;15.07;13.70;;;12.10;99.90;;;;;;4976857;28;20046;-77
2023/07/26 05:13:51;;;;;;;16.02;14.52;;;12.10;99.90;;;;;;4978956;28;20042;-76
2023/07/26 05:16:16;;;;;;;13.02;11.85;;;12.20;99.90;;;;;;4980445;28;20093;-76
2023/07/26 05:18:42;;;;;;;14.57;12.80;;;12.20;99.90;;;;;;4984082;28;20430;-76
2023/07/26 05:21:08;;;;;;;15.05;13.65;;;12.10;99.90;;;;;;4962462;28;20045;-77
2023/07/26 05:23:34;;;;;;;13.60;12.40;;;12.10;99.90;;;;;;4980344;28;20052;-77
2023/07/26 05:25:59;;;;;;;11.55;10.55;;;12.10;99.90;;;;;;4971483;28;20034;-77
2023/07/26 05:28:25;;;;;;;11.52;9.95;;;12.00;99.90;;;;;;4978312;28;20123;-76
2023/07/26 05:30:51;;;;;;;11.52;10.50;;;12.00;99.90;;;;;;4976204;28;20069;-77
2023/07/26 05:33:16;;;;;;;13.15;11.85;;;12.00;99.90;;;;;;4971997;28;20129;-76
2023/07/26 05:35:43;;;;;;;13.85;12.65;;;12.00;99.90;;;;;;4987897;28;20042;-77
2023/07/26 05:38:08;;;;;;;13.93;12.73;;;12.00;99.90;;;;;;4959231;28;20395;-76
2023/07/26 05:40:34;;;;;;;12.95;11.75;;;12.10;99.90;;;;;;4959590;28;20045;-77
2023/07/26 05:43:00;;;;;;;12.88;11.57;;;12.10;99.90;;;;;;4966178;28;20050;-77
2023/07/26 05:45:26;;;;;;;11.95;10.88;;;12.20;99.90;;;;;;4967623;28;20052;-77
2023/07/26 05:47:52;;;;;;;18.45;16.75;;;12.20;99.90;;;;;;4973013;28;20042;-76
2023/07/26 05:50:17;;;;;;;14.93;13.63;;;12.30;99.90;;;;;;4969552;28;20124;-77
2023/07/26 05:52:43;;;;;;;16.30;14.68;;;12.30;99.90;;;;;;4975392;28;20082;-77
2023/07/26 05:55:09;;;;;;;14.25;12.98;;;12.40;99.90;;;;;;4975233;28;20050;-77
2023/07/26 05:57:36;;;;;;;12.88;11.77;;;12.40;99.90;;;;;;4985265;28;20057;-77
2023/07/26 06:00:02;;;;;;;13.18;11.90;;;12.50;99.90;;;;;;4961296;28;20080;-77
2023/07/26 06:02:28;;;;;;;13.93;12.65;;;12.50;99.90;;;;;;4977602;28;20501;-77
2023/07/26 06:04:54;;;;;;;16.35;14.98;;;12.50;99.90;;;;;;4970007;28;20124;-76
2023/07/26 06:07:20;;;;;;;12.05;10.85;;;12.50;99.90;;;;;;4975517;28;20052;-76
2023/07/26 06:09:45;;;;;;;12.45;11.35;;;12.60;99.90;;;;;;4989752;28;20413;-77
2023/07/26 06:12:11;;;;;;;12.27;11.07;;;12.70;99.90;;;;;;4986499;28;20080;-77
2023/07/26 06:14:37;;;;;;;13.05;12.05;;;12.80;99.90;;;;;;4977824;28;20073;-77
2023/07/26 06:17:04;;;;;;;14.57;13.27;;;13.00;99.90;;;;;;4984841;28;20066;-77
2023/07/26 06:19:30;;;;;;;14.07;12.80;;;13.10;99.90;;;;;;4992738;28;20050;-77
2023/07/26 06:21:56;;;;;;;12.77;11.73;;;13.20;99.90;;;;;;4974660;28;20034;-78
2023/07/26 06:24:25;;;;;;;11.77;10.68;;;13.30;99.90;;;;;;4974291;28;20126;-77
2023/07/26 06:26:59;;;;;;;11.98;11.07;;;13.40;99.90;;;;;;4967699;28;20045;-78
2023/07/26 06:29:26;;;;;;;9.80;8.88;;;13.50;99.90;;;;;;4988441;28;20376;-79
2023/07/26 06:31:52;;;;;;;10.55;9.52;;;13.60;99.90;;;;;;4975643;28;20049;-77
2023/07/26 06:34:17;;;;;;;11.00;10.00;;;13.70;99.90;;;;;;4985233;28;20045;-78
2023/07/26 06:36:46;;;;;;;11.05;9.88;;;13.70;99.90;;;;;;4976633;28;20095;-78
2023/07/26 06:39:12;;;;;;;11.20;10.20;;;13.80;99.90;;;;;;4972174;28;20042;-78
2023/07/26 06:41:38;;;;;;;12.85;10.32;;;13.80;99.90;;;;;;4981807;28;20042;-78
2023/07/26 06:44:05;;;;;;;9.80;8.90;;;13.80;99.90;;;;;;4982689;28;20041;-78
2023/07/26 06:46:33;;;;;;;9.93;9.02;;;14.00;99.90;;;;;;4969708;28;20038;-78
2023/07/26 06:48:59;;;;;;;10.07;9.18;;;14.20;99.90;;;;;;4974484;28;20052;-78
2023/07/26 06:51:25;;;;;;;10.18;8.85;;;14.30;99.90;;;;;;4980450;28;20042;-78
2023/07/26 06:53:50;;;;;;;10.80;9.70;;;14.50;99.90;;;;;;4974405;28;20050;-78
2023/07/26 06:56:16;;;;;;;8.65;7.85;;;14.60;99.90;;;;;;4974199;28;20610;-78
2023/07/26 06:58:42;;;;;;;9.43;8.52;;;14.70;99.90;;;;;;4976603;28;20204;-78
2023/07/26 07:01:18;;;;;;;13.05;11.55;;;14.70;99.90;;;;;;4967710;28;20034;-78
2023/07/26 07:03:43;;;;;;;10.63;9.57;;;14.80;99.90;;;;;;4974560;28;20034;-78
2023/07/26 07:06:09;;;;;;;12.98;11.18;;;14.80;99.90;;;;;;4974448;28;20046;-78
2023/07/26 07:08:36;;;;;;;11.48;10.38;;;14.80;99.90;;;;;;4978028;28;20394;-78
2023/07/26 07:11:02;;;;;;;13.23;11.27;;;14.70;99.90;;;;;;4971289;28;20041;-78
2023/07/26 07:13:28;;;;;;;13.63;11.95;;;14.60;99.90;;;;;;4992239;28;20046;-78
2023/07/26 07:15:53;;;;;;;17.08;13.88;;;14.60;99.90;;;;;;4965771;28;20053;-78
2023/07/26 07:18:22;;;;;;;16.00;13.68;;;14.40;99.90;;;;;;4971779;28;20068;-79
2023/07/26 07:20:55;;;;;;;16.38;14.88;;;14.30;99.90;;;;;;4967963;28;20207;-78
2023/07/26 07:23:25;;;;;;;18.20;16.40;;;14.20;99.90;;;;;;4969204;28;20041;-79
2023/07/26 07:25:50;;;;;;;35.83;21.65;;;14.10;99.90;;;;;;4977968;28;20034;-79
2023/07/26 07:28:16;;;;;;;22.73;15.98;;;14.10;99.90;;;;;;4995957;28;20403;-78
2023/07/26 07:30:42;;;;;;;18.70;16.88;;;14.00;99.90;;;;;;5001134;28;20038;-78
2023/07/26 07:33:10;;;;;;;18.08;16.17;;;14.00;99.90;;;;;;4993266;28;20073;-78
2023/07/26 07:35:39;;;;;;;13.10;11.77;;;14.10;99.90;;;;;;4975604;28;20042;-79
2023/07/26 07:38:05;;;;;;;30.75;20.25;;;14.00;99.90;;;;;;4962857;28;20050;-78
2023/07/26 07:40:33;;;;;;;19.67;17.58;;;14.00;99.90;;;;;;4965755;28;20059;-78
2023/07/26 07:42:59;;;;;;;17.83;16.02;;;14.00;99.90;;;;;;4978576;28;20125;-79
2023/07/26 07:45:28;;;;;;;18.98;17.15;;;13.90;99.90;;;;;;4968221;28;20189;-78
2023/07/26 07:47:54;;;;;;;15.70;14.20;;;14.10;99.90;;;;;;4986988;28;20050;-78
2023/07/26 07:50:23;;;;;;;14.35;12.90;;;14.30;99.90;;;;;;4974650;28;20422;-79
2023/07/26 07:52:52;;;;;;;8.80;7.90;;;14.40;99.90;;;;;;4977818;28;20414;-79
2023/07/26 07:55:18;;;;;;;8.93;8.10;;;14.60;99.90;;;;;;4969416;28;20104;-78
2023/07/26 07:57:46;;;;;;;10.02;8.70;;;14.70;99.90;;;;;;4969334;28;20050;-79
2023/07/26 08:00:13;;;;;;;6.32;5.82;;;14.80;99.90;;;;;;4964156;28;20487;-78
2023/07/26 08:02:38;;;;;;;6.22;5.63;;;14.90;99.90;;;;;;4971683;28;20042;-78
2023/07/26 08:05:05;;;;;;;4.97;4.57;;;15.00;99.90;;;;;;4981022;28;20037;-78
2023/07/26 08:07:33;;;;;;;7.07;6.40;;;15.20;99.90;;;;;;4984994;28;20046;-78
2023/07/26 08:09:59;;;;;;;6.35;5.70;;;15.30;99.90;;;;;;4963290;28;20136;-78
2023/07/26 08:12:28;;;;;;;8.05;7.30;;;15.40;99.90;;;;;;4964938;28;20042;-78
2023/07/26 08:14:54;;;;;;;5.63;5.13;;;15.50;99.90;;;;;;4961560;28;20498;-78
2023/07/26 08:17:22;;;;;;;6.45;5.60;;;15.90;99.90;;;;;;4980370;28;20383;-78
2023/07/26 08:19:48;;;;;;;8.10;7.30;;;16.40;99.90;;;;;;4964993;28;20069;-78
2023/07/26 08:22:16;;;;;;;7.13;6.05;;;17.10;99.90;;;;;;4978099;28;20034;-78
2023/07/26 08:24:42;;;;;;;6.35;5.30;;;18.00;99.90;;;;;;4978659;28;20052;-78
2023/07/26 08:27:08;;;;;;;6.22;5.30;;;18.80;99.90;;;;;;4993585;28;20402;-78
2023/07/26 08:29:41;;;;;;;5.45;4.53;;;19.40;99.90;;;;;;4979736;28;20065;-79
2023/07/26 08:32:07;;;;;;;4.35;3.90;;;19.90;99.90;;;;;;4975169;28;20034;-78
2023/07/26 08:34:33;;;;;;;4.97;4.50;;;20.20;99.90;;;;;;4965902;28;20602;-79
2023/07/26 08:36:59;;;;;;;4.90;4.50;;;19.90;99.90;;;;;;4979055;28;20038;-79
2023/07/26 08:39:25;;;;;;;4.93;4.35;;;19.60;99.90;;;;;;4971311;28;20046;-78
2023/07/26 08:41:51;;;;;;;7.75;4.43;;;19.60;99.90;;;;;;4977144;28;20053;-78
2023/07/26 08:44:23;;;;;;;5.22;4.72;;;19.90;99.90;;;;;;4973361;28;20124;-78
2023/07/26 08:46:59;;;;;;;4.55;4.03;;;20.40;99.90;;;;;;4980144;28;20072;-78
2023/07/26 08:49:25;;;;;;;5.13;4.10;;;20.80;99.90;;;;;;4975145;28;20443;-78
2023/07/26 08:51:51;;;;;;;4.38;4.00;;;21.20;99.90;;;;;;4977576;28;20411;-78
2023/07/26 08:54:21;;;;;;;4.55;4.10;;;21.40;99.90;;;;;;4989469;28;20050;-79
2023/07/26 08:56:48;;;;;;;4.32;3.90;;;21.70;99.90;;;;;;4976654;28;20490;-78
2023/07/26 08:59:17;;;;;;;4.60;4.20;;;22.00;99.90;;;;;;4976443;28;20046;-79
2023/07/26 09:01:47;;;;;;;4.45;4.03;;;22.20;99.90;;;;;;4977928;28;20534;-79
2023/07/26 09:04:16;;;;;;;3.65;3.35;;;22.50;99.90;;;;;;5001810;28;20033;-81
2023/07/26 09:06:45;;;;;;;4.40;4.00;;;22.40;99.90;;;;;;4980024;28;20514;-80
2023/07/26 09:09:16;;;;;;;4.15;3.75;;;22.40;99.90;;;;;;4982118;28;20034;-81
2023/07/26 09:15:26;;;;;;;4.68;4.20;;;22.70;99.90;;;;;;4988078;28;20122;-80
2023/07/26 09:17:52;;;;;;;5.57;4.75;;;22.90;99.90;;;;;;5012914;28;20054;-81
2023/07/26 09:20:20;;;;;;;5.72;4.90;;;22.60;99.90;;;;;;4988363;28;20041;-78
2023/07/26 09:22:46;;;;;;;4.88;4.47;;;22.40;99.90;;;;;;5004597;28;20434;-77
2023/07/26 09:25:13;;;;;;;4.78;4.28;;;22.10;99.90;;;;;;4984630;28;20078;-79
2023/07/26 09:27:52;;;;;;;4.80;4.40;;;21.70;99.90;;;;;;4979871;28;20054;-79
2023/07/26 09:30:22;;;;;;;5.05;4.57;;;21.50;99.90;;;;;;4963031;28;20071;-78
2023/07/26 09:32:56;;;;;;;5.30;4.40;;;21.40;99.90;;;;;;4972965;28;20037;-79
2023/07/26 09:35:23;;;;;;;5.93;4.82;;;21.70;99.90;;;;;;4976369;28;20058;-79
2023/07/26 09:37:50;;;;;;;4.97;4.50;;;22.00;99.90;;;;;;4966921;28;20487;-79
2023/07/26 09:40:16;;;;;;;6.30;5.20;;;22.10;99.90;;;;;;4992516;23;20041;-75
2023/07/26 09:42:47;;;;;;;4.32;3.80;;;22.00;99.90;;;;;;4995068;28;20041;-73
2023/07/26 09:45:24;;;;;;;6.07;4.43;;;21.90;99.90;;;;;;5011963;28;20048;-75
2023/07/26 09:47:51;;;;;;;4.30;3.90;;;21.90;99.90;;;;;;4996290;28;20046;-76
2023/07/26 09:50:30;;;;;;;5.00;4.00;;;22.10;99.90;;;;;;4994212;28;20072;-76
2023/07/26 09:52:56;;;;;;;4.55;4.15;;;22.20;99.90;;;;;;4977701;28;20052;-76
2023/07/26 09:55:27;;;;;;;4.45;3.90;;;21.90;99.90;;;;;;4978944;28;20490;-76
2023/07/26 09:57:54;;;;;;;5.47;4.97;;;21.80;99.90;;;;;;4978353;28;20046;-76
2023/07/26 10:00:21;;;;;;;6.57;4.40;;;22.00;99.90;;;;;;4977444;28;20041;-75
2023/07/26 10:02:56;;;;;;;6.20;4.80;;;22.00;99.90;;;;;;5001857;28;20485;-75
2023/07/26 10:05:24;;;;;;;4.45;3.80;;;21.80;99.90;;;;;;4959206;28;20038;-76
2023/07/26 10:07:50;;;;;;;4.03;3.45;;;21.60;99.90;;;;;;4975266;28;20042;-76
2023/07/26 10:10:17;;;;;;;4.28;3.47;;;21.90;99.90;;;;;;4975365;28;20053;-74
2023/07/26 10:12:47;;;;;;;4.68;3.40;;;22.10;99.90;;;;;;4975191;28;20121;-75
2023/07/26 10:15:13;;;;;;;3.85;3.00;;;22.10;99.90;;;;;;4985737;28;20429;-76
2023/07/26 10:17:42;;;;;;;3.95;3.00;;;22.40;99.90;;;;;;4994056;28;20052;-75
2023/07/26 10:20:09;;;;;;;3.50;2.85;;;22.90;99.90;;;;;;5004890;28;20048;-75
2023/07/26 10:22:36;;;;;;;5.60;3.67;;;23.40;99.90;;;;;;5014103;28;20056;-76
2023/07/26 10:25:02;;;;;;;3.95;3.28;;;23.70;99.90;;;;;;4987094;28;20044;-75
2023/07/26 10:27:28;;;;;;;4.30;2.95;;;23.90;99.90;;;;;;4987768;28;20042;-74
2023/07/26 10:29:54;;;;;;;3.97;3.47;;;24.00;99.90;;;;;;4994478;28;20567;-76
2023/07/26 10:32:19;;;;;;;3.97;3.50;;;24.00;99.90;;;;;;5004830;28;20069;-75
2023/07/26 10:34:54;;;;;;;4.55;3.40;;;23.80;99.90;;;;;;5017787;28;20529;-76
2023/07/26 10:37:19;;;;;;;4.55;3.35;;;23.70;99.90;;;;;;4985545;28;20107;-76
2023/07/26 10:39:46;;;;;;;5.95;3.30;;;23.50;99.90;;;;;;4994230;28;20498;-76
2023/07/26 10:42:26;;;;;;;3.95;3.38;;;23.00;99.90;;;;;;4994381;28;20482;-76
2023/07/26 10:44:54;;;;;;;5.07;3.50;;;22.50;99.90;;;;;;4975885;28;20497;-76
2023/07/26 10:47:20;;;;;;;5.38;3.13;;;22.20;99.90;;;;;;4992441;28;20049;-76
2023/07/26 10:49:46;;;;;;;4.93;3.20;;;22.50;99.90;;;;;;4985790;28;20046;-76
2023/07/26 10:52:12;;;;;;;3.55;2.38;;;23.20;99.90;;;;;;4994200;28;20426;-76
2023/07/26 10:54:54;;;;;;;3.75;2.65;;;23.70;99.90;;;;;;4989961;28;20026;-75
2023/07/26 10:57:31;;;;;;;4.82;2.65;;;23.80;99.90;;;;;;4986384;28;20029;-76
2023/07/26 11:00:10;;;;;;;4.40;2.47;;;23.50;99.90;;;;;;4991904;28;20451;-76
2023/07/26 11:02:37;;;;;;;5.13;3.17;;;22.60;99.90;;;;;;5029857;28;20498;-75
2023/07/26 11:05:07;;;;;;;4.63;3.20;;;21.60;99.90;;;;;;4996576;28;20037;-75
2023/07/26 11:07:54;;;;;;;4.03;2.80;;;20.70;99.90;;;;;;5030645;28;20520;-75
2023/07/26 11:10:28;;;;;;;3.50;2.45;;;19.80;99.90;;;;;;4996351;28;20445;-75
2023/07/26 11:13:06;;;;;;;6.63;3.22;;;19.10;99.90;;;;;;5009633;28;20593;-76
2023/07/26 11:15:33;;;;;;;4.97;2.85;;;18.60;99.90;;;;;;4996418;28;20133;-75
2023/07/26 11:17:59;;;;;;;5.50;2.92;;;18.20;99.90;;;;;;4996100;28;20053;-76
2023/07/26 11:20:25;;;;;;;3.83;2.97;;;17.90;99.90;;;;;;4978423;28;20489;-75
2023/07/26 11:22:51;;;;;;;4.75;3.45;;;17.80;99.90;;;;;;4981111;28;20089;-75
2023/07/26 11:25:16;;;;;;;5.72;4.22;;;17.70;99.90;;;;;;4993868;28;20038;-75
2023/07/26 11:27:44;;;;;;;5.85;4.45;;;17.90;99.90;;;;;;4977967;28;20391;-75
2023/07/26 11:30:22;;;;;;;5.70;3.53;;;18.20;99.90;;;;;;4994969;28;20060;-75
2023/07/26 11:32:50;;;;;;;4.60;3.22;;;18.90;99.90;;;;;;4996483;28;20524;-75
2023/07/26 11:35:20;;;;;;;4.43;3.08;;;19.50;99.90;;;;;;4994958;28;20507;-76
2023/07/26 11:37:56;;;;;;;4.30;3.45;;;19.90;99.90;;;;;;4995301;28;20054;-75
2023/07/26 11:40:22;;;;;;;5.95;3.97;;;20.10;99.90;;;;;;5005601;28;20084;-75
2023/07/26 11:42:52;;;;;;;5.85;3.88;;;20.00;99.90;;;;;;4994905;28;20034;-75
2023/07/26 11:45:17;;;;;;;5.55;3.88;;;20.10;99.90;;;;;;4987615;28;20076;-75
2023/07/26 11:47:45;;;;;;;5.72;4.07;;;20.10;99.90;;;;;;5004828;28;20459;-75
2023/07/26 11:50:11;;;;;;;4.70;3.63;;;20.20;99.90;;;;;;4988464;28;20046;-75
2023/07/26 11:52:38;;;;;;;5.43;4.10;;;20.40;99.90;;;;;;4997207;28;20042;-75
2023/07/26 11:55:06;;;;;;;5.57;4.10;;;20.90;99.90;;;;;;4979917;28;20038;-76
2023/07/26 11:57:32;;;;;;;5.88;4.50;;;21.10;99.90;;;;;;4996615;28;20042;-75
2023/07/26 12:00:01;;;;;;;5.65;4.07;;;21.20;99.90;;;;;;4990273;28;20113;-76
2023/07/26 12:02:27;;;;;;;5.10;3.85;;;21.50;99.90;;;;;;4989515;28;20045;-76
2023/07/26 12:05:19;;;;;;;6.07;4.68;;;21.90;99.90;;;;;;4995901;28;20061;-76
2023/07/26 12:07:50;;;;;;;4.15;3.50;;;22.60;99.90;;;;;;4996633;28;20045;-76
2023/07/26 12:10:17;;;;;;;6.10;3.70;;;23.00;99.90;;;;;;4994073;28;20053;-76
2023/07/26 12:12:43;;;;;;;7.82;4.28;;;23.20;99.90;;;;;;4993707;28;20046;-76
2023/07/26 12:15:12;;;;;;;4.15;3.42;;;23.50;99.90;;;;;;4979061;28;20045;-76
2023/07/26 12:17:58;;;;;;;5.72;3.30;;;23.90;99.90;;;;;;5011369;28;20045;-75
2023/07/26 12:20:25;;;;;;;5.88;3.30;;;24.30;99.90;;;;;;4988113;28;20026;-76
2023/07/26 12:22:56;;;;;;;4.47;3.00;;;24.30;99.90;;;;;;4974936;28;20037;-76
2023/07/26 12:25:33;;;;;;;5.40;3.20;;;23.90;99.90;;;;;;4991751;28;20029;-75
2023/07/26 12:27:58;;;;;;;3.97;2.85;;;23.60;99.90;;;;;;4992898;28;20046;-76
2023/07/26 12:30:25;;;;;;;4.95;2.65;;;23.40;99.90;;;;;;4998895;28;20044;-75
2023/07/26 12:33:09;;;;;;;4.00;3.17;;;23.60;99.90;;;;;;4991054;28;20038;-75
2023/07/26 12:35:35;;;;;;;3.80;2.88;;;23.80;99.90;;;;;;4990455;28;20047;-75
2023/07/26 12:38:12;;;;;;;4.07;2.60;;;24.10;99.90;;;;;;5025792;28;20057;-76
2023/07/26 12:40:39;;;;;;;3.92;2.72;;;24.30;99.90;;;;;;5005820;28;20042;-75